createdAt,value
2023-04-13T00:08:11.812Z,98.00
2023-04-13T00:18:13.538Z,98.30
2023-04-13T00:28:16.647Z,97.70
2023-04-13T00:38:18.282Z,97.70
2023-04-13T00:48:20.705Z,97.70
2023-04-13T00:58:22.903Z,97.80
2023-04-13T01:08:39.928Z,98.10
2023-04-13T01:18:45.496Z,98.10
2023-04-13T01:28:47.994Z,98.20
2023-04-13T01:38:50.163Z,98.30
2023-04-13T01:48:55.608Z,98.10
2023-04-13T01:58:58.925Z,97.90
2023-04-13T02:09:00.761Z,97.70
2023-04-13T02:19:02.456Z,97.30
2023-04-13T02:29:04.117Z,97.20
2023-04-13T02:39:05.835Z,97.00
2023-04-13T02:49:08.913Z,96.80
2023-04-13T02:59:10.708Z,96.70
2023-04-13T03:09:12.385Z,96.50
2023-04-13T03:19:14.377Z,96.10
2023-04-13T03:29:16.141Z,95.80
2023-04-13T03:39:17.801Z,95.40
2023-04-13T03:49:19.493Z,95.10
2023-04-13T03:59:21.134Z,95.00
2023-04-13T04:09:22.776Z,94.80
2023-04-13T04:19:24.467Z,94.50
2023-04-13T04:29:35.067Z,94.00
2023-04-13T04:39:44.497Z,93.20
2023-04-13T04:49:46.295Z,92.40
2023-04-13T04:59:49.238Z,92.10
2023-04-13T05:09:50.914Z,91.80
2023-04-13T05:19:52.792Z,91.50
2023-04-13T05:33:49.813Z,91.20
2023-04-13T05:43:51.448Z,90.60
2023-04-13T05:53:53.327Z,90.20
2023-04-13T06:03:55.981Z,89.40
2023-04-13T06:14:00.076Z,89.50
2023-04-13T06:24:01.979Z,89.10
2023-04-13T06:34:03.692Z,87.40
2023-04-13T06:44:05.621Z,86.70
2023-04-13T07:04:09.612Z,86.80
2023-04-13T07:14:11.312Z,85.50
2023-04-13T07:24:12.965Z,85.50
2023-04-13T07:34:14.651Z,84.40
2023-04-13T07:44:16.517Z,83.80
2023-04-13T07:54:18.464Z,81.80
2023-04-13T08:04:22.207Z,80.70
2023-04-13T08:14:24.048Z,79.20
2023-04-13T08:34:28.139Z,78.00
2023-04-13T08:44:30.471Z,77.80
2023-04-13T08:54:32.901Z,77.60
2023-04-13T09:04:36.953Z,77.60
2023-04-13T09:14:38.974Z,77.80
2023-04-13T09:24:41.441Z,77.20
2023-04-13T09:34:43.186Z,77.30
2023-04-13T09:44:54.964Z,77.30
2023-04-13T09:54:58.810Z,77.10
2023-04-13T10:05:01.296Z,77.20
2023-04-13T10:15:31.465Z,76.70
2023-04-13T10:25:35.075Z,77.90
2023-04-13T10:35:40.084Z,78.40
2023-04-13T10:45:43.783Z,79.00
2023-04-13T10:55:45.403Z,78.90
2023-04-13T11:05:57.078Z,76.80
2023-04-13T11:16:03.343Z,75.60
2023-04-13T11:26:05.755Z,74.50
2023-04-13T11:36:08.026Z,73.70
2023-04-13T11:46:12.795Z,73.30
2023-04-13T11:56:14.744Z,73.90
2023-04-13T12:06:17.571Z,73.40
2023-04-13T12:27:16.410Z,72.40
2023-04-13T12:36:57.843Z,70.30
2023-04-13T12:46:59.577Z,69.00
2023-04-13T12:57:01.604Z,69.20
2023-04-13T13:07:03.255Z,68.90
2023-04-13T13:17:04.911Z,69.40
2023-04-13T13:37:11.385Z,75.40
2023-04-13T13:47:13.351Z,76.10
2023-04-13T13:57:15.020Z,77.70
2023-04-13T14:07:16.722Z,78.30
2023-04-13T14:17:18.404Z,76.40
2023-04-13T14:27:20.493Z,76.60
2023-04-13T14:37:23.627Z,71.60
2023-04-13T14:47:25.369Z,68.60
2023-04-13T14:57:28.321Z,68.40
2023-04-13T15:07:30.073Z,69.60
2023-04-13T15:17:31.714Z,67.60
2023-04-13T15:27:34.610Z,66.70
2023-04-13T15:37:36.468Z,66.20
2023-04-13T15:47:38.601Z,65.80
2023-04-13T15:57:40.495Z,65.70
2023-04-13T16:07:42.192Z,66.40
2023-04-13T16:17:44.762Z,67.90
2023-04-13T16:27:48.452Z,73.10
2023-04-13T16:37:50.272Z,73.90
2023-04-13T16:47:55.396Z,79.00
2023-04-13T16:57:57.423Z,88.60
2023-04-13T17:07:59.116Z,89.20
2023-04-13T17:18:01.099Z,87.30
2023-04-13T17:28:02.831Z,86.80
2023-04-13T17:38:04.732Z,86.40
2023-04-13T17:48:06.456Z,86.00
2023-04-13T17:58:08.137Z,85.50
2023-04-13T18:08:09.761Z,85.00
2023-04-13T18:18:11.416Z,85.70
2023-04-13T18:28:13.069Z,85.10
2023-04-13T18:38:14.711Z,85.80
2023-04-13T18:48:16.347Z,85.60
2023-04-13T18:58:21.151Z,87.30
2023-04-13T19:08:22.802Z,88.00
2023-04-13T19:18:24.964Z,88.50
2023-04-13T19:28:27.162Z,90.10
2023-04-13T19:38:28.819Z,90.70
2023-04-13T19:48:30.884Z,91.00
2023-04-13T19:58:32.789Z,91.80
2023-04-13T20:08:34.574Z,92.30
2023-04-13T20:18:36.224Z,92.70
2023-04-13T20:28:38.831Z,93.00
2023-04-13T20:38:42.900Z,93.20
2023-04-13T20:58:50.021Z,94.00
2023-04-13T21:08:52.876Z,94.10
2023-04-13T21:18:55.042Z,94.40
2023-04-13T21:28:56.664Z,94.90
2023-04-13T21:38:58.743Z,95.20
2023-04-13T21:49:00.909Z,95.60
2023-04-13T21:59:02.842Z,95.60
2023-04-13T22:09:04.901Z,95.80
2023-04-13T22:19:06.561Z,96.00
2023-04-13T22:29:08.904Z,96.30
2023-04-13T22:39:10.528Z,96.50
2023-04-13T22:49:12.177Z,96.90
2023-04-13T23:09:16.238Z,97.40
2023-04-13T23:19:21.061Z,97.50
2023-04-13T23:29:22.816Z,97.70
2023-04-13T23:39:24.523Z,98.00
2023-04-13T23:49:26.492Z,98.10
2023-04-13T23:59:28.175Z,98.30
